sensor_id;sensor_type;location;lat;lon;timestamp;temperature;humidity
37002;DHT22;22913;51.910;8.374;2022-09-03T00:00:13;18.10;99.90
37002;DHT22;22913;51.910;8.374;2022-09-03T00:03:03;18.10;99.90
37002;DHT22;22913;51.910;8.374;2022-09-03T00:05:55;18.00;99.90
37002;DHT22;22913;51.910;8.374;2022-09-03T00:08:51;18.00;99.90
37002;DHT22;22913;51.910;8.374;2022-09-03T00:11:49;17.90;99.90
37002;DHT22;22913;51.910;8.374;2022-09-03T00:14:40;17.90;99.90
37002;DHT22;22913;51.910;8.374;2022-09-03T00:17:31;17.90;99.90
37002;DHT22;22913;51.910;8.374;2022-09-03T00:20:26;17.90;99.90
37002;DHT22;22913;51.910;8.374;2022-09-03T00:23:17;17.80;99.90
37002;DHT22;22913;51.910;8.374;2022-09-03T00:26:15;17.80;99.90
37002;DHT22;22913;51.910;8.374;2022-09-03T00:29:08;17.80;99.90
37002;DHT22;22913;51.910;8.374;2022-09-03T00:31:57;17.80;99.90
37002;DHT22;22913;51.910;8.374;2022-09-03T00:34:49;17.80;99.90
37002;DHT22;22913;51.910;8.374;2022-09-03T00:37:36;17.70;99.90
37002;DHT22;22913;51.910;8.374;2022-09-03T00:40:35;17.70;99.90
37002;DHT22;22913;51.910;8.374;2022-09-03T00:43:34;17.70;99.90
37002;DHT22;22913;51.910;8.374;2022-09-03T00:46:29;17.60;99.90
37002;DHT22;22913;51.910;8.374;2022-09-03T00:49:31;17.60;99.90
37002;DHT22;22913;51.910;8.374;2022-09-03T00:52:28;17.60;99.90
37002;DHT22;22913;51.910;8.374;2022-09-03T00:55:26;17.50;99.90
37002;DHT22;22913;51.910;8.374;2022-09-03T00:58:35;17.60;99.90
37002;DHT22;22913;51.910;8.374;2022-09-03T01:01:28;17.50;99.90
37002;DHT22;22913;51.910;8.374;2022-09-03T01:04:27;17.40;99.90
37002;DHT22;22913;51.910;8.374;2022-09-03T01:07:19;17.40;99.90
37002;DHT22;22913;51.910;8.374;2022-09-03T01:10:15;17.30;99.90
37002;DHT22;22913;51.910;8.374;2022-09-03T01:13:13;17.30;99.90
37002;DHT22;22913;51.910;8.374;2022-09-03T01:16:08;17.30;99.90
37002;DHT22;22913;51.910;8.374;2022-09-03T01:19:02;17.30;99.90
37002;DHT22;22913;51.910;8.374;2022-09-03T01:22:08;17.30;99.90
37002;DHT22;22913;51.910;8.374;2022-09-03T01:25:14;17.20;99.90
37002;DHT22;22913;51.910;8.374;2022-09-03T01:28:14;17.20;99.90
37002;DHT22;22913;51.910;8.374;2022-09-03T01:31:12;17.20;99.90
37002;DHT22;22913;51.910;8.374;2022-09-03T01:34:07;17.20;99.90
37002;DHT22;22913;51.910;8.374;2022-09-03T01:37:05;17.10;99.90
37002;DHT22;22913;51.910;8.374;2022-09-03T01:40:01;17.00;99.90
37002;DHT22;22913;51.910;8.374;2022-09-03T01:42:56;17.00;99.90
37002;DHT22;22913;51.910;8.374;2022-09-03T01:45:52;17.00;99.90
37002;DHT22;22913;51.910;8.374;2022-09-03T01:48:48;16.90;99.90
37002;DHT22;22913;51.910;8.374;2022-09-03T01:51:36;16.90;99.90
37002;DHT22;22913;51.910;8.374;2022-09-03T01:54:36;16.90;99.90
37002;DHT22;22913;51.910;8.374;2022-09-03T01:57:44;16.80;99.90
37002;DHT22;22913;51.910;8.374;2022-09-03T02:00:34;16.80;99.90
37002;DHT22;22913;51.910;8.374;2022-09-03T02:03:23;16.80;99.90
37002;DHT22;22913;51.910;8.374;2022-09-03T02:06:10;16.70;99.90
37002;DHT22;22913;51.910;8.374;2022-09-03T02:08:55;16.70;99.90
37002;DHT22;22913;51.910;8.374;2022-09-03T02:11:43;16.70;99.90
37002;DHT22;22913;51.910;8.374;2022-09-03T02:14:31;16.70;99.90
37002;DHT22;22913;51.910;8.374;2022-09-03T02:17:17;16.60;99.90
37002;DHT22;22913;51.910;8.374;2022-09-03T02:20:07;16.50;99.90
37002;DHT22;22913;51.910;8.374;2022-09-03T02:22:55;16.50;99.90
37002;DHT22;22913;51.910;8.374;2022-09-03T02:25:44;16.50;99.90
37002;DHT22;22913;51.910;8.374;2022-09-03T02:28:32;16.50;99.90
37002;DHT22;22913;51.910;8.374;2022-09-03T02:31:18;16.50;99.90
37002;DHT22;22913;51.910;8.374;2022-09-03T02:34:03;16.50;99.90
37002;DHT22;22913;51.910;8.374;2022-09-03T02:36:50;16.40;99.90
37002;DHT22;22913;51.910;8.374;2022-09-03T02:39:36;16.40;99.90
37002;DHT22;22913;51.910;8.374;2022-09-03T02:42:22;16.40;99.90
37002;DHT22;22913;51.910;8.374;2022-09-03T02:45:16;16.30;99.90
37002;DHT22;22913;51.910;8.374;2022-09-03T02:48:04;16.20;99.90
37002;DHT22;22913;51.910;8.374;2022-09-03T02:50:50;16.20;99.90
37002;DHT22;22913;51.910;8.374;2022-09-03T02:53:37;16.20;99.90
37002;DHT22;22913;51.910;8.374;2022-09-03T02:56:23;16.10;99.90
37002;DHT22;22913;51.910;8.374;2022-09-03T02:59:10;16.10;99.90
37002;DHT22;22913;51.910;8.374;2022-09-03T03:01:56;16.00;99.90
37002;DHT22;22913;51.910;8.374;2022-09-03T03:04:42;16.00;99.90
37002;DHT22;22913;51.910;8.374;2022-09-03T03:07:29;16.00;99.90
37002;DHT22;22913;51.910;8.374;2022-09-03T03:10:17;15.90;99.90
37002;DHT22;22913;51.910;8.374;2022-09-03T03:13:03;15.90;99.90
37002;DHT22;22913;51.910;8.374;2022-09-03T03:15:48;15.80;99.90
37002;DHT22;22913;51.910;8.374;2022-09-03T03:18:34;15.70;99.90
37002;DHT22;22913;51.910;8.374;2022-09-03T03:21:20;15.70;99.90
37002;DHT22;22913;51.910;8.374;2022-09-03T03:24:06;15.70;99.90
37002;DHT22;22913;51.910;8.374;2022-09-03T03:26:56;15.70;99.90
37002;DHT22;22913;51.910;8.374;2022-09-03T03:29:42;15.70;99.90
37002;DHT22;22913;51.910;8.374;2022-09-03T03:32:28;15.60;99.90
37002;DHT22;22913;51.910;8.374;2022-09-03T03:35:13;15.60;99.90
37002;DHT22;22913;51.910;8.374;2022-09-03T03:37:59;15.60;99.90
37002;DHT22;22913;51.910;8.374;2022-09-03T03:40:51;15.50;99.90
37002;DHT22;22913;51.910;8.374;2022-09-03T03:43:38;15.50;99.90
37002;DHT22;22913;51.910;8.374;2022-09-03T03:46:27;15.50;99.90
37002;DHT22;22913;51.910;8.374;2022-09-03T03:49:13;15.50;99.90
37002;DHT22;22913;51.910;8.374;2022-09-03T03:51:58;15.50;99.90
37002;DHT22;22913;51.910;8.374;2022-09-03T03:54:46;15.40;99.90
37002;DHT22;22913;51.910;8.374;2022-09-03T03:57:33;15.40;99.90
37002;DHT22;22913;51.910;8.374;2022-09-03T04:00:21;15.40;99.90
37002;DHT22;22913;51.910;8.374;2022-09-03T04:03:06;15.40;99.90
37002;DHT22;22913;51.910;8.374;2022-09-03T04:05:56;15.40;99.90
37002;DHT22;22913;51.910;8.374;2022-09-03T04:08:43;15.30;99.90
37002;DHT22;22913;51.910;8.374;2022-09-03T04:11:29;15.20;99.90
37002;DHT22;22913;51.910;8.374;2022-09-03T04:14:15;15.20;99.90
37002;DHT22;22913;51.910;8.374;2022-09-03T04:17:03;15.10;99.90
37002;DHT22;22913;51.910;8.374;2022-09-03T04:19:48;15.20;99.90
37002;DHT22;22913;51.910;8.374;2022-09-03T04:22:34;15.10;99.90
37002;DHT22;22913;51.910;8.374;2022-09-03T04:25:20;15.10;99.90
37002;DHT22;22913;51.910;8.374;2022-09-03T04:28:05;15.10;99.90
37002;DHT22;22913;51.910;8.374;2022-09-03T04:30:51;15.10;99.90
37002;DHT22;22913;51.910;8.374;2022-09-03T04:33:39;15.00;99.90
37002;DHT22;22913;51.910;8.374;2022-09-03T04:36:26;15.00;99.90
37002;DHT22;22913;51.910;8.374;2022-09-03T04:39:12;15.00;99.90
37002;DHT22;22913;51.910;8.374;2022-09-03T04:41:57;15.00;99.90
37002;DHT22;22913;51.910;8.374;2022-09-03T04:44:43;15.10;99.90
37002;DHT22;22913;51.910;8.374;2022-09-03T04:47:29;15.00;99.90
37002;DHT22;22913;51.910;8.374;2022-09-03T04:50:16;14.90;99.90
37002;DHT22;22913;51.910;8.374;2022-09-03T04:53:03;14.90;99.90
37002;DHT22;22913;51.910;8.374;2022-09-03T04:55:49;14.90;99.90
37002;DHT22;22913;51.910;8.374;2022-09-03T04:58:35;14.90;99.90
37002;DHT22;22913;51.910;8.374;2022-09-03T05:01:23;14.90;99.90
37002;DHT22;22913;51.910;8.374;2022-09-03T05:04:09;14.90;99.90
37002;DHT22;22913;51.910;8.374;2022-09-03T05:06:56;14.90;99.90
37002;DHT22;22913;51.910;8.374;2022-09-03T05:09:42;14.90;99.90
37002;DHT22;22913;51.910;8.374;2022-09-03T05:12:27;14.90;99.90
37002;DHT22;22913;51.910;8.374;2022-09-03T05:15:15;14.90;99.90
37002;DHT22;22913;51.910;8.374;2022-09-03T05:18:02;14.90;99.90
37002;DHT22;22913;51.910;8.374;2022-09-03T05:20:47;14.90;99.90
37002;DHT22;22913;51.910;8.374;2022-09-03T05:23:44;14.90;99.90
37002;DHT22;22913;51.910;8.374;2022-09-03T05:26:32;14.90;99.90
37002;DHT22;22913;51.910;8.374;2022-09-03T05:29:20;14.90;99.90
37002;DHT22;22913;51.910;8.374;2022-09-03T05:32:07;15.00;99.90
37002;DHT22;22913;51.910;8.374;2022-09-03T05:34:53;15.10;99.90
37002;DHT22;22913;51.910;8.374;2022-09-03T05:37:39;15.00;99.90
37002;DHT22;22913;51.910;8.374;2022-09-03T05:40:26;15.10;99.90
37002;DHT22;22913;51.910;8.374;2022-09-03T05:43:12;15.00;99.90
37002;DHT22;22913;51.910;8.374;2022-09-03T05:46:02;15.00;99.90
37002;DHT22;22913;51.910;8.374;2022-09-03T05:48:47;15.10;99.90
37002;DHT22;22913;51.910;8.374;2022-09-03T05:51:34;15.10;99.90
37002;DHT22;22913;51.910;8.374;2022-09-03T05:54:22;15.20;99.90
37002;DHT22;22913;51.910;8.374;2022-09-03T05:57:10;15.20;99.90
37002;DHT22;22913;51.910;8.374;2022-09-03T05:59:56;15.20;99.90
37002;DHT22;22913;51.910;8.374;2022-09-03T06:02:41;15.20;99.90
37002;DHT22;22913;51.910;8.374;2022-09-03T06:05:27;15.20;99.90
37002;DHT22;22913;51.910;8.374;2022-09-03T06:08:13;15.30;99.90
37002;DHT22;22913;51.910;8.374;2022-09-03T06:11:00;15.40;99.90
37002;DHT22;22913;51.910;8.374;2022-09-03T06:13:48;15.50;99.90
37002;DHT22;22913;51.910;8.374;2022-09-03T06:16:36;15.60;99.90
37002;DHT22;22913;51.910;8.374;2022-09-03T06:19:22;15.60;99.90
37002;DHT22;22913;51.910;8.374;2022-09-03T06:22:08;15.70;99.90
37002;DHT22;22913;51.910;8.374;2022-09-03T06:24:54;15.70;99.90
37002;DHT22;22913;51.910;8.374;2022-09-03T06:27:39;15.80;99.90
37002;DHT22;22913;51.910;8.374;2022-09-03T06:30:27;15.90;99.90
37002;DHT22;22913;51.910;8.374;2022-09-03T06:33:12;15.90;99.90
37002;DHT22;22913;51.910;8.374;2022-09-03T06:36:03;16.10;99.90
37002;DHT22;22913;51.910;8.374;2022-09-03T06:38:51;16.10;99.90
37002;DHT22;22913;51.910;8.374;2022-09-03T06:41:37;16.20;99.90
37002;DHT22;22913;51.910;8.374;2022-09-03T06:44:23;16.30;99.90
37002;DHT22;22913;51.910;8.374;2022-09-03T06:47:11;16.40;99.90
37002;DHT22;22913;51.910;8.374;2022-09-03T06:49:57;16.40;99.90
37002;DHT22;22913;51.910;8.374;2022-09-03T06:52:43;16.50;99.90
37002;DHT22;22913;51.910;8.374;2022-09-03T06:55:29;16.60;99.90
37002;DHT22;22913;51.910;8.374;2022-09-03T06:58:16;16.70;99.90
37002;DHT22;22913;51.910;8.374;2022-09-03T07:01:02;16.70;99.90
37002;DHT22;22913;51.910;8.374;2022-09-03T07:03:53;16.80;99.90
37002;DHT22;22913;51.910;8.374;2022-09-03T07:06:40;16.80;99.90
37002;DHT22;22913;51.910;8.374;2022-09-03T07:09:27;16.90;99.90
37002;DHT22;22913;51.910;8.374;2022-09-03T07:12:13;16.90;99.90
37002;DHT22;22913;51.910;8.374;2022-09-03T07:15:01;17.00;99.90
37002;DHT22;22913;51.910;8.374;2022-09-03T07:17:46;17.20;99.90
37002;DHT22;22913;51.910;8.374;2022-09-03T07:20:35;17.20;99.90
37002;DHT22;22913;51.910;8.374;2022-09-03T07:23:20;17.30;99.90
37002;DHT22;22913;51.910;8.374;2022-09-03T07:26:08;17.40;99.90
37002;DHT22;22913;51.910;8.374;2022-09-03T07:28:54;17.50;99.90
37002;DHT22;22913;51.910;8.374;2022-09-03T07:31:41;17.50;99.90
37002;DHT22;22913;51.910;8.374;2022-09-03T07:34:27;17.70;99.90
37002;DHT22;22913;51.910;8.374;2022-09-03T07:37:14;17.70;99.90
37002;DHT22;22913;51.910;8.374;2022-09-03T07:40:02;17.80;99.90
37002;DHT22;22913;51.910;8.374;2022-09-03T07:42:48;17.80;99.90
37002;DHT22;22913;51.910;8.374;2022-09-03T07:45:34;17.90;99.90
37002;DHT22;22913;51.910;8.374;2022-09-03T07:48:21;18.00;99.90
37002;DHT22;22913;51.910;8.374;2022-09-03T07:51:07;18.10;99.90
37002;DHT22;22913;51.910;8.374;2022-09-03T07:53:55;18.10;99.90
37002;DHT22;22913;51.910;8.374;2022-09-03T07:56:41;18.30;99.90
37002;DHT22;22913;51.910;8.374;2022-09-03T07:59:27;18.40;99.90
37002;DHT22;22913;51.910;8.374;2022-09-03T08:02:12;18.50;99.90
37002;DHT22;22913;51.910;8.374;2022-09-03T08:04:58;18.60;99.90
37002;DHT22;22913;51.910;8.374;2022-09-03T08:07:44;18.60;99.90
37002;DHT22;22913;51.910;8.374;2022-09-03T08:10:33;18.70;99.90
37002;DHT22;22913;51.910;8.374;2022-09-03T08:13:19;18.80;99.90
37002;DHT22;22913;51.910;8.374;2022-09-03T08:16:05;18.90;99.90
37002;DHT22;22913;51.910;8.374;2022-09-03T08:18:51;19.10;99.90
37002;DHT22;22913;51.910;8.374;2022-09-03T08:21:36;19.20;99.90
37002;DHT22;22913;51.910;8.374;2022-09-03T08:24:24;19.30;99.90
37002;DHT22;22913;51.910;8.374;2022-09-03T08:27:11;19.30;99.90
37002;DHT22;22913;51.910;8.374;2022-09-03T08:29:57;19.40;99.90
37002;DHT22;22913;51.910;8.374;2022-09-03T08:32:42;19.50;99.90
37002;DHT22;22913;51.910;8.374;2022-09-03T08:35:28;19.70;99.90
37002;DHT22;22913;51.910;8.374;2022-09-03T08:38:18;19.70;99.90
37002;DHT22;22913;51.910;8.374;2022-09-03T08:41:05;19.80;99.90
37002;DHT22;22913;51.910;8.374;2022-09-03T08:44:00;20.00;99.90
37002;DHT22;22913;51.910;8.374;2022-09-03T08:46:52;20.00;99.90
37002;DHT22;22913;51.910;8.374;2022-09-03T08:49:44;20.10;99.90
37002;DHT22;22913;51.910;8.374;2022-09-03T08:52:33;20.20;99.90
37002;DHT22;22913;51.910;8.374;2022-09-03T08:55:25;20.30;99.90
37002;DHT22;22913;51.910;8.374;2022-09-03T08:58:13;20.40;99.90
37002;DHT22;22913;51.910;8.374;2022-09-03T09:01:05;20.50;99.90
37002;DHT22;22913;51.910;8.374;2022-09-03T09:04:04;20.60;99.90
37002;DHT22;22913;51.910;8.374;2022-09-03T09:06:55;20.70;99.90
37002;DHT22;22913;51.910;8.374;2022-09-03T09:09:48;20.80;99.90
37002;DHT22;22913;51.910;8.374;2022-09-03T09:12:41;20.90;99.90
37002;DHT22;22913;51.910;8.374;2022-09-03T09:15:35;21.10;99.90
37002;DHT22;22913;51.910;8.374;2022-09-03T09:18:32;21.20;99.90
37002;DHT22;22913;51.910;8.374;2022-09-03T09:21:27;21.30;99.90
37002;DHT22;22913;51.910;8.374;2022-09-03T09:24:18;21.40;99.90
37002;DHT22;22913;51.910;8.374;2022-09-03T09:27:06;21.50;99.90
37002;DHT22;22913;51.910;8.374;2022-09-03T09:29:53;21.60;99.90
37002;DHT22;22913;51.910;8.374;2022-09-03T09:32:39;21.70;99.90
37002;DHT22;22913;51.910;8.374;2022-09-03T09:35:26;21.90;99.90
37002;DHT22;22913;51.910;8.374;2022-09-03T09:38:12;22.10;99.90
37002;DHT22;22913;51.910;8.374;2022-09-03T09:41:08;22.20;99.90
37002;DHT22;22913;51.910;8.374;2022-09-03T09:43:59;22.30;99.90
37002;DHT22;22913;51.910;8.374;2022-09-03T09:46:46;22.50;99.90
37002;DHT22;22913;51.910;8.374;2022-09-03T09:49:35;22.70;99.90
37002;DHT22;22913;51.910;8.374;2022-09-03T09:52:24;22.90;99.90
37002;DHT22;22913;51.910;8.374;2022-09-03T09:55:15;23.10;99.90
37002;DHT22;22913;51.910;8.374;2022-09-03T09:58:05;23.00;99.90
37002;DHT22;22913;51.910;8.374;2022-09-03T10:01:01;23.10;99.90
37002;DHT22;22913;51.910;8.374;2022-09-03T10:03:50;23.20;99.90
37002;DHT22;22913;51.910;8.374;2022-09-03T10:06:38;23.40;99.90
37002;DHT22;22913;51.910;8.374;2022-09-03T10:09:41;23.60;99.90
37002;DHT22;22913;51.910;8.374;2022-09-03T10:12:29;23.80;99.90
37002;DHT22;22913;51.910;8.374;2022-09-03T10:15:22;24.00;99.90
37002;DHT22;22913;51.910;8.374;2022-09-03T10:18:14;24.00;99.90
37002;DHT22;22913;51.910;8.374;2022-09-03T10:21:11;24.10;99.90
37002;DHT22;22913;51.910;8.374;2022-09-03T10:24:03;24.20;99.90
37002;DHT22;22913;51.910;8.374;2022-09-03T10:26:52;24.30;99.90
37002;DHT22;22913;51.910;8.374;2022-09-03T10:29:39;24.50;99.90
37002;DHT22;22913;51.910;8.374;2022-09-03T10:32:33;24.70;99.90
37002;DHT22;22913;51.910;8.374;2022-09-03T10:35:26;25.00;99.90
37002;DHT22;22913;51.910;8.374;2022-09-03T10:38:18;25.20;99.90
37002;DHT22;22913;51.910;8.374;2022-09-03T10:41:16;25.50;99.90
37002;DHT22;22913;51.910;8.374;2022-09-03T10:44:19;25.50;99.90
37002;DHT22;22913;51.910;8.374;2022-09-03T10:47:19;25.50;99.90
37002;DHT22;22913;51.910;8.374;2022-09-03T10:50:11;25.60;99.90
37002;DHT22;22913;51.910;8.374;2022-09-03T10:53:08;25.70;99.90
37002;DHT22;22913;51.910;8.374;2022-09-03T10:55:59;25.70;99.90
37002;DHT22;22913;51.910;8.374;2022-09-03T10:58:57;25.70;99.90
37002;DHT22;22913;51.910;8.374;2022-09-03T11:01:54;25.70;99.90
37002;DHT22;22913;51.910;8.374;2022-09-03T11:04:50;25.90;99.90
37002;DHT22;22913;51.910;8.374;2022-09-03T11:07:41;26.20;99.90
37002;DHT22;22913;51.910;8.374;2022-09-03T11:10:30;26.50;99.90
37002;DHT22;22913;51.910;8.374;2022-09-03T11:13:19;26.70;99.90
37002;DHT22;22913;51.910;8.374;2022-09-03T11:16:12;26.90;99.90
37002;DHT22;22913;51.910;8.374;2022-09-03T11:19:04;27.20;99.90
37002;DHT22;22913;51.910;8.374;2022-09-03T11:21:51;27.60;99.90
37002;DHT22;22913;51.910;8.374;2022-09-03T11:24:38;27.90;99.90
37002;DHT22;22913;51.910;8.374;2022-09-03T11:27:36;28.30;99.90
37002;DHT22;22913;51.910;8.374;2022-09-03T11:30:37;28.50;99.90
37002;DHT22;22913;51.910;8.374;2022-09-03T11:33:25;28.70;99.90
37002;DHT22;22913;51.910;8.374;2022-09-03T11:36:23;28.70;99.90
37002;DHT22;22913;51.910;8.374;2022-09-03T11:39:18;28.90;99.90
37002;DHT22;22913;51.910;8.374;2022-09-03T11:42:10;29.40;99.90
37002;DHT22;22913;51.910;8.374;2022-09-03T11:45:10;29.30;99.90
37002;DHT22;22913;51.910;8.374;2022-09-03T11:47:57;29.20;99.90
37002;DHT22;22913;51.910;8.374;2022-09-03T11:50:52;29.50;99.80
37002;DHT22;22913;51.910;8.374;2022-09-03T11:53:39;29.50;99.60
37002;DHT22;22913;51.910;8.374;2022-09-03T11:56:25;29.40;99.20
37002;DHT22;22913;51.910;8.374;2022-09-03T11:59:18;29.30;99.00
37002;DHT22;22913;51.910;8.374;2022-09-03T12:02:25;29.10;98.80
37002;DHT22;22913;51.910;8.374;2022-09-03T12:05:29;29.10;98.50
37002;DHT22;22913;51.910;8.374;2022-09-03T12:11:46;28.80;98.60
37002;DHT22;22913;51.910;8.374;2022-09-03T12:14:39;28.80;97.70
37002;DHT22;22913;51.910;8.374;2022-09-03T12:17:30;28.60;97.60
37002;DHT22;22913;51.910;8.374;2022-09-03T12:20:17;28.50;97.70
37002;DHT22;22913;51.910;8.374;2022-09-03T12:23:04;28.30;97.30
37002;DHT22;22913;51.910;8.374;2022-09-03T12:25:51;28.00;98.10
37002;DHT22;22913;51.910;8.374;2022-09-03T12:28:38;28.00;97.80
37002;DHT22;22913;51.910;8.374;2022-09-03T12:31:26;28.00;97.60
37002;DHT22;22913;51.910;8.374;2022-09-03T12:34:14;28.00;97.40
37002;DHT22;22913;51.910;8.374;2022-09-03T12:37:00;28.00;97.50
37002;DHT22;22913;51.910;8.374;2022-09-03T12:39:50;28.20;97.20
37002;DHT22;22913;51.910;8.374;2022-09-03T12:42:36;28.20;97.00
37002;DHT22;22913;51.910;8.374;2022-09-03T12:45:24;28.00;96.90
37002;DHT22;22913;51.910;8.374;2022-09-03T12:48:12;27.80;97.00
37002;DHT22;22913;51.910;8.374;2022-09-03T12:51:01;27.60;97.70
37002;DHT22;22913;51.910;8.374;2022-09-03T12:53:48;27.60;98.10
37002;DHT22;22913;51.910;8.374;2022-09-03T12:56:35;27.60;98.10
37002;DHT22;22913;51.910;8.374;2022-09-03T12:59:22;27.80;98.80
37002;DHT22;22913;51.910;8.374;2022-09-03T13:02:16;27.70;97.40
37002;DHT22;22913;51.910;8.374;2022-09-03T13:05:04;27.60;97.20
37002;DHT22;22913;51.910;8.374;2022-09-03T13:07:53;27.50;97.40
37002;DHT22;22913;51.910;8.374;2022-09-03T13:10:41;27.40;97.80
37002;DHT22;22913;51.910;8.374;2022-09-03T13:13:29;27.50;98.10
37002;DHT22;22913;51.910;8.374;2022-09-03T13:16:59;27.50;98.40
37002;DHT22;22913;51.910;8.374;2022-09-03T13:20:06;27.50;97.90
37002;DHT22;22913;51.910;8.374;2022-09-03T13:23:13;27.50;97.30
37002;DHT22;22913;51.910;8.374;2022-09-03T13:26:12;27.40;97.30
37002;DHT22;22913;51.910;8.374;2022-09-03T13:32:24;27.20;97.60
37002;DHT22;22913;51.910;8.374;2022-09-03T13:35:27;26.90;98.40
37002;DHT22;22913;51.910;8.374;2022-09-03T13:38:22;27.00;97.70
37002;DHT22;22913;51.910;8.374;2022-09-03T13:41:13;26.90;97.80
37002;DHT22;22913;51.910;8.374;2022-09-03T13:44:07;26.80;98.00
37002;DHT22;22913;51.910;8.374;2022-09-03T13:46:56;26.70;98.30
37002;DHT22;22913;51.910;8.374;2022-09-03T13:49:50;26.70;98.40
37002;DHT22;22913;51.910;8.374;2022-09-03T13:53:01;26.70;98.80
37002;DHT22;22913;51.910;8.374;2022-09-03T13:55:52;26.60;98.70
37002;DHT22;22913;51.910;8.374;2022-09-03T13:58:43;26.50;98.70
37002;DHT22;22913;51.910;8.374;2022-09-03T14:01:43;26.60;98.90
37002;DHT22;22913;51.910;8.374;2022-09-03T14:04:41;26.50;98.90
37002;DHT22;22913;51.910;8.374;2022-09-03T14:07:43;26.60;99.10
37002;DHT22;22913;51.910;8.374;2022-09-03T14:10:43;26.60;98.80
37002;DHT22;22913;51.910;8.374;2022-09-03T14:13:47;26.70;98.90
37002;DHT22;22913;51.910;8.374;2022-09-03T14:16:38;26.80;98.90
37002;DHT22;22913;51.910;8.374;2022-09-03T14:19:35;26.90;98.50
37002;DHT22;22913;51.910;8.374;2022-09-03T14:22:24;27.00;98.80
37002;DHT22;22913;51.910;8.374;2022-09-03T14:25:15;27.20;98.80
37002;DHT22;22913;51.910;8.374;2022-09-03T14:28:24;27.30;97.80
37002;DHT22;22913;51.910;8.374;2022-09-03T14:31:15;27.50;97.40
37002;DHT22;22913;51.910;8.374;2022-09-03T14:34:11;27.60;97.30
37002;DHT22;22913;51.910;8.374;2022-09-03T14:37:04;27.60;97.60
37002;DHT22;22913;51.910;8.374;2022-09-03T14:39:53;27.60;97.10
37002;DHT22;22913;51.910;8.374;2022-09-03T14:42:53;27.60;96.90
37002;DHT22;22913;51.910;8.374;2022-09-03T14:45:54;27.60;97.20
37002;DHT22;22913;51.910;8.374;2022-09-03T14:49:03;27.50;97.40
37002;DHT22;22913;51.910;8.374;2022-09-03T14:52:06;27.50;97.40
37002;DHT22;22913;51.910;8.374;2022-09-03T14:55:24;27.40;97.20
37002;DHT22;22913;51.910;8.374;2022-09-03T14:58:29;27.40;97.50
37002;DHT22;22913;51.910;8.374;2022-09-03T15:01:27;27.80;97.30
37002;DHT22;22913;51.910;8.374;2022-09-03T15:04:33;27.70;97.40
37002;DHT22;22913;51.910;8.374;2022-09-03T15:07:32;27.80;97.20
37002;DHT22;22913;51.910;8.374;2022-09-03T15:10:25;28.30;96.70
37002;DHT22;22913;51.910;8.374;2022-09-03T15:13:16;28.40;97.00
37002;DHT22;22913;51.910;8.374;2022-09-03T15:16:12;28.70;96.80
37002;DHT22;22913;51.910;8.374;2022-09-03T15:19:26;29.30;96.00
37002;DHT22;22913;51.910;8.374;2022-09-03T15:22:26;30.00;95.20
37002;DHT22;22913;51.910;8.374;2022-09-03T15:25:21;30.60;94.60
37002;DHT22;22913;51.910;8.374;2022-09-03T15:28:13;31.10;94.10
37002;DHT22;22913;51.910;8.374;2022-09-03T15:31:09;31.40;93.20
37002;DHT22;22913;51.910;8.374;2022-09-03T15:34:00;31.10;93.20
37002;DHT22;22913;51.910;8.374;2022-09-03T15:36:51;30.80;93.00
37002;DHT22;22913;51.910;8.374;2022-09-03T15:39:40;30.60;92.70
37002;DHT22;22913;51.910;8.374;2022-09-03T15:42:27;30.60;93.30
37002;DHT22;22913;51.910;8.374;2022-09-03T15:45:20;30.60;92.70
37002;DHT22;22913;51.910;8.374;2022-09-03T15:48:16;30.70;92.50
37002;DHT22;22913;51.910;8.374;2022-09-03T15:51:10;30.50;92.80
37002;DHT22;22913;51.910;8.374;2022-09-03T15:54:05;30.20;92.90
37002;DHT22;22913;51.910;8.374;2022-09-03T15:57:01;30.00;93.30
37002;DHT22;22913;51.910;8.374;2022-09-03T15:59:53;29.50;93.50
37002;DHT22;22913;51.910;8.374;2022-09-03T16:02:46;29.20;93.90
37002;DHT22;22913;51.910;8.374;2022-09-03T16:05:38;28.90;94.10
37002;DHT22;22913;51.910;8.374;2022-09-03T16:08:31;28.80;94.40
37002;DHT22;22913;51.910;8.374;2022-09-03T16:11:28;28.50;94.80
37002;DHT22;22913;51.910;8.374;2022-09-03T16:14:22;28.30;95.00
37002;DHT22;22913;51.910;8.374;2022-09-03T16:17:20;28.40;95.10
37002;DHT22;22913;51.910;8.374;2022-09-03T16:20:14;28.60;94.60
37002;DHT22;22913;51.910;8.374;2022-09-03T16:23:06;28.50;94.20
37002;DHT22;22913;51.910;8.374;2022-09-03T16:26:00;28.30;93.80
37002;DHT22;22913;51.910;8.374;2022-09-03T16:28:52;28.10;94.20
37002;DHT22;22913;51.910;8.374;2022-09-03T16:31:50;28.10;94.40
37002;DHT22;22913;51.910;8.374;2022-09-03T16:34:51;27.70;94.60
37002;DHT22;22913;51.910;8.374;2022-09-03T16:37:49;27.50;94.80
37002;DHT22;22913;51.910;8.374;2022-09-03T16:40:41;27.60;94.50
37002;DHT22;22913;51.910;8.374;2022-09-03T16:43:38;27.60;94.90
37002;DHT22;22913;51.910;8.374;2022-09-03T16:46:34;27.70;94.50
37002;DHT22;22913;51.910;8.374;2022-09-03T16:49:38;27.60;94.40
37002;DHT22;22913;51.910;8.374;2022-09-03T16:52:30;27.30;94.80
37002;DHT22;22913;51.910;8.374;2022-09-03T16:55:22;27.30;94.80
37002;DHT22;22913;51.910;8.374;2022-09-03T16:58:15;27.40;94.60
37002;DHT22;22913;51.910;8.374;2022-09-03T17:01:15;27.20;94.70
37002;DHT22;22913;51.910;8.374;2022-09-03T17:04:30;27.00;95.10
37002;DHT22;22913;51.910;8.374;2022-09-03T17:07:32;27.00;95.20
37002;DHT22;22913;51.910;8.374;2022-09-03T17:10:27;26.90;95.30
37002;DHT22;22913;51.910;8.374;2022-09-03T17:13:42;27.00;95.20
37002;DHT22;22913;51.910;8.374;2022-09-03T17:16:40;26.80;95.20
37002;DHT22;22913;51.910;8.374;2022-09-03T17:19:34;26.70;95.50
37002;DHT22;22913;51.910;8.374;2022-09-03T17:22:35;26.60;95.80
37002;DHT22;22913;51.910;8.374;2022-09-03T17:25:28;26.60;95.80
37002;DHT22;22913;51.910;8.374;2022-09-03T17:28:23;26.50;96.00
37002;DHT22;22913;51.910;8.374;2022-09-03T17:31:15;26.40;96.10
37002;DHT22;22913;51.910;8.374;2022-09-03T17:34:11;26.30;96.30
37002;DHT22;22913;51.910;8.374;2022-09-03T17:37:11;26.20;96.20
37002;DHT22;22913;51.910;8.374;2022-09-03T17:40:18;26.00;96.30
37002;DHT22;22913;51.910;8.374;2022-09-03T17:43:17;25.90;96.50
37002;DHT22;22913;51.910;8.374;2022-09-03T17:46:14;25.70;96.70
37002;DHT22;22913;51.910;8.374;2022-09-03T17:49:06;25.60;96.90
37002;DHT22;22913;51.910;8.374;2022-09-03T17:52:00;25.50;97.30
37002;DHT22;22913;51.910;8.374;2022-09-03T17:54:50;25.40;97.60
37002;DHT22;22913;51.910;8.374;2022-09-03T17:57:39;25.30;98.00
37002;DHT22;22913;51.910;8.374;2022-09-03T18:00:33;25.20;98.40
37002;DHT22;22913;51.910;8.374;2022-09-03T18:03:25;25.10;98.80
37002;DHT22;22913;51.910;8.374;2022-09-03T18:06:22;25.00;99.10
37002;DHT22;22913;51.910;8.374;2022-09-03T18:09:21;24.90;99.50